sensor_id;sensor_type;location;lat;lon;timestamp;P1;durP1;ratioP1;P2;durP2;ratioP2
13487;SDS011;6816;48.506;9.050;2023-02-15T00:01:07;14.43;;;10.20;;
13487;SDS011;6816;48.506;9.050;2023-02-15T00:04:09;16.73;;;10.80;;
13487;SDS011;6816;48.506;9.050;2023-02-15T00:07:16;16.17;;;9.37;;
13487;SDS011;6816;48.506;9.050;2023-02-15T00:10:18;14.53;;;9.60;;
13487;SDS011;6816;48.506;9.050;2023-02-15T00:13:19;12.67;;;8.67;;
13487;SDS011;6816;48.506;9.050;2023-02-15T00:16:19;13.00;;;9.40;;
13487;SDS011;6816;48.506;9.050;2023-02-15T00:19:20;13.90;;;9.10;;
13487;SDS011;6816;48.506;9.050;2023-02-15T00:22:21;15.10;;;9.90;;
13487;SDS011;6816;48.506;9.050;2023-02-15T00:25:22;14.20;;;9.67;;
13487;SDS011;6816;48.506;9.050;2023-02-15T00:28:23;15.20;;;10.27;;
13487;SDS011;6816;48.506;9.050;2023-02-15T00:31:23;14.87;;;9.40;;
13487;SDS011;6816;48.506;9.050;2023-02-15T00:34:25;15.47;;;9.77;;
13487;SDS011;6816;48.506;9.050;2023-02-15T00:37:27;14.80;;;10.47;;
13487;SDS011;6816;48.506;9.050;2023-02-15T00:40:27;14.27;;;10.00;;
13487;SDS011;6816;48.506;9.050;2023-02-15T00:43:28;12.77;;;9.50;;
13487;SDS011;6816;48.506;9.050;2023-02-15T00:46:30;12.70;;;9.07;;
13487;SDS011;6816;48.506;9.050;2023-02-15T00:49:32;13.50;;;9.03;;
13487;SDS011;6816;48.506;9.050;2023-02-15T00:52:32;12.97;;;9.17;;
13487;SDS011;6816;48.506;9.050;2023-02-15T00:55:33;11.60;;;8.73;;
13487;SDS011;6816;48.506;9.050;2023-02-15T00:58:34;15.40;;;9.60;;
13487;SDS011;6816;48.506;9.050;2023-02-15T01:01:34;14.63;;;9.73;;
13487;SDS011;6816;48.506;9.050;2023-02-15T01:04:35;16.53;;;10.07;;
13487;SDS011;6816;48.506;9.050;2023-02-15T01:07:35;13.97;;;9.73;;
13487;SDS011;6816;48.506;9.050;2023-02-15T01:10:36;13.13;;;9.20;;
13487;SDS011;6816;48.506;9.050;2023-02-15T01:13:37;16.63;;;9.37;;
13487;SDS011;6816;48.506;9.050;2023-02-15T01:16:38;17.03;;;9.43;;
13487;SDS011;6816;48.506;9.050;2023-02-15T01:19:38;13.43;;;9.07;;
13487;SDS011;6816;48.506;9.050;2023-02-15T01:22:39;12.93;;;8.87;;
13487;SDS011;6816;48.506;9.050;2023-02-15T01:25:40;13.50;;;9.30;;
13487;SDS011;6816;48.506;9.050;2023-02-15T01:28:40;14.43;;;9.00;;
13487;SDS011;6816;48.506;9.050;2023-02-15T01:31:41;13.27;;;8.97;;
13487;SDS011;6816;48.506;9.050;2023-02-15T01:34:42;13.67;;;8.70;;
13487;SDS011;6816;48.506;9.050;2023-02-15T01:37:42;12.87;;;9.43;;
13487;SDS011;6816;48.506;9.050;2023-02-15T01:40:43;13.60;;;8.90;;
13487;SDS011;6816;48.506;9.050;2023-02-15T01:43:45;14.43;;;9.53;;
13487;SDS011;6816;48.506;9.050;2023-02-15T01:46:49;13.23;;;9.37;;
13487;SDS011;6816;48.506;9.050;2023-02-15T01:50:07;15.83;;;9.37;;
13487;SDS011;6816;48.506;9.050;2023-02-15T01:56:34;13.13;;;9.60;;
13487;SDS011;6816;48.506;9.050;2023-02-15T01:59:37;13.47;;;8.97;;
13487;SDS011;6816;48.506;9.050;2023-02-15T02:02:40;13.47;;;8.97;;
13487;SDS011;6816;48.506;9.050;2023-02-15T02:05:43;13.77;;;8.90;;
13487;SDS011;6816;48.506;9.050;2023-02-15T02:08:44;13.63;;;9.37;;
13487;SDS011;6816;48.506;9.050;2023-02-15T02:11:46;15.87;;;9.53;;
13487;SDS011;6816;48.506;9.050;2023-02-15T02:14:48;15.50;;;8.83;;
13487;SDS011;6816;48.506;9.050;2023-02-15T02:17:56;12.40;;;8.17;;
13487;SDS011;6816;48.506;9.050;2023-02-15T02:24:41;12.97;;;8.10;;
13487;SDS011;6816;48.506;9.050;2023-02-15T02:34:55;14.97;;;9.83;;
13487;SDS011;6816;48.506;9.050;2023-02-15T02:44:54;12.87;;;8.97;;
13487;SDS011;6816;48.506;9.050;2023-02-15T02:48:21;14.07;;;9.13;;
13487;SDS011;6816;48.506;9.050;2023-02-15T02:51:25;14.23;;;9.23;;
13487;SDS011;6816;48.506;9.050;2023-02-15T02:54:26;14.53;;;8.60;;
13487;SDS011;6816;48.506;9.050;2023-02-15T02:57:28;13.13;;;8.70;;
13487;SDS011;6816;48.506;9.050;2023-02-15T03:00:52;11.90;;;8.77;;
13487;SDS011;6816;48.506;9.050;2023-02-15T03:03:59;13.37;;;8.60;;
13487;SDS011;6816;48.506;9.050;2023-02-15T03:07:10;13.37;;;9.17;;
13487;SDS011;6816;48.506;9.050;2023-02-15T03:10:14;11.50;;;8.27;;
13487;SDS011;6816;48.506;9.050;2023-02-15T03:13:17;13.50;;;8.17;;
13487;SDS011;6816;48.506;9.050;2023-02-15T03:16:18;13.30;;;8.17;;
13487;SDS011;6816;48.506;9.050;2023-02-15T03:19:27;13.03;;;8.93;;
13487;SDS011;6816;48.506;9.050;2023-02-15T03:22:33;11.27;;;8.03;;
13487;SDS011;6816;48.506;9.050;2023-02-15T03:25:38;15.43;;;8.93;;
13487;SDS011;6816;48.506;9.050;2023-02-15T03:28:42;15.00;;;9.17;;
13487;SDS011;6816;48.506;9.050;2023-02-15T03:31:46;13.20;;;8.83;;
13487;SDS011;6816;48.506;9.050;2023-02-15T03:34:52;13.17;;;8.53;;
13487;SDS011;6816;48.506;9.050;2023-02-15T03:38:00;14.17;;;8.83;;
13487;SDS011;6816;48.506;9.050;2023-02-15T03:41:03;15.50;;;9.00;;
13487;SDS011;6816;48.506;9.050;2023-02-15T03:44:23;14.10;;;8.73;;
13487;SDS011;6816;48.506;9.050;2023-02-15T03:47:32;10.60;;;7.50;;
13487;SDS011;6816;48.506;9.050;2023-02-15T03:50:36;9.50;;;7.27;;
13487;SDS011;6816;48.506;9.050;2023-02-15T03:53:58;9.43;;;7.30;;
13487;SDS011;6816;48.506;9.050;2023-02-15T03:57:04;10.70;;;7.03;;
13487;SDS011;6816;48.506;9.050;2023-02-15T04:00:25;10.43;;;7.90;;
13487;SDS011;6816;48.506;9.050;2023-02-15T04:03:52;11.20;;;7.90;;
13487;SDS011;6816;48.506;9.050;2023-02-15T04:06:57;13.27;;;8.67;;
13487;SDS011;6816;48.506;9.050;2023-02-15T04:09:58;12.00;;;7.97;;
13487;SDS011;6816;48.506;9.050;2023-02-15T04:13:21;12.07;;;7.97;;
13487;SDS011;6816;48.506;9.050;2023-02-15T04:16:24;11.70;;;7.80;;
13487;SDS011;6816;48.506;9.050;2023-02-15T04:19:25;15.23;;;8.93;;
13487;SDS011;6816;48.506;9.050;2023-02-15T04:22:44;13.27;;;8.70;;
13487;SDS011;6816;48.506;9.050;2023-02-15T04:26:03;13.97;;;9.20;;
13487;SDS011;6816;48.506;9.050;2023-02-15T04:29:04;10.73;;;7.97;;
13487;SDS011;6816;48.506;9.050;2023-02-15T04:32:05;14.77;;;8.33;;
13487;SDS011;6816;48.506;9.050;2023-02-15T04:35:06;13.43;;;8.20;;
13487;SDS011;6816;48.506;9.050;2023-02-15T04:38:07;15.10;;;8.87;;
13487;SDS011;6816;48.506;9.050;2023-02-15T04:41:08;14.67;;;9.13;;
13487;SDS011;6816;48.506;9.050;2023-02-15T04:44:10;15.13;;;8.80;;
13487;SDS011;6816;48.506;9.050;2023-02-15T04:47:11;13.13;;;8.30;;
13487;SDS011;6816;48.506;9.050;2023-02-15T04:50:11;15.23;;;9.10;;
13487;SDS011;6816;48.506;9.050;2023-02-15T04:53:12;15.73;;;9.03;;
13487;SDS011;6816;48.506;9.050;2023-02-15T04:56:13;12.43;;;8.37;;
13487;SDS011;6816;48.506;9.050;2023-02-15T04:59:14;12.27;;;8.10;;
13487;SDS011;6816;48.506;9.050;2023-02-15T05:02:14;13.27;;;8.33;;
13487;SDS011;6816;48.506;9.050;2023-02-15T05:05:15;11.60;;;7.83;;
13487;SDS011;6816;48.506;9.050;2023-02-15T05:08:16;12.37;;;8.30;;
13487;SDS011;6816;48.506;9.050;2023-02-15T05:11:16;14.93;;;8.50;;
13487;SDS011;6816;48.506;9.050;2023-02-15T05:14:17;12.40;;;8.20;;
13487;SDS011;6816;48.506;9.050;2023-02-15T05:17:18;15.43;;;8.87;;
13487;SDS011;6816;48.506;9.050;2023-02-15T05:20:18;13.43;;;8.03;;
13487;SDS011;6816;48.506;9.050;2023-02-15T05:23:19;13.70;;;8.87;;
13487;SDS011;6816;48.506;9.050;2023-02-15T05:26:21;12.33;;;8.20;;
13487;SDS011;6816;48.506;9.050;2023-02-15T05:29:42;14.27;;;9.13;;
13487;SDS011;6816;48.506;9.050;2023-02-15T05:32:43;13.30;;;8.83;;
13487;SDS011;6816;48.506;9.050;2023-02-15T05:35:44;15.47;;;9.03;;
13487;SDS011;6816;48.506;9.050;2023-02-15T05:38:44;14.80;;;8.30;;
13487;SDS011;6816;48.506;9.050;2023-02-15T05:41:45;12.33;;;8.13;;
13487;SDS011;6816;48.506;9.050;2023-02-15T05:44:45;13.90;;;9.23;;
13487;SDS011;6816;48.506;9.050;2023-02-15T05:47:46;13.47;;;8.67;;
13487;SDS011;6816;48.506;9.050;2023-02-15T05:50:55;14.90;;;8.43;;
13487;SDS011;6816;48.506;9.050;2023-02-15T05:54:02;13.73;;;8.77;;
13487;SDS011;6816;48.506;9.050;2023-02-15T05:57:03;14.37;;;9.07;;
13487;SDS011;6816;48.506;9.050;2023-02-15T06:00:04;14.93;;;8.43;;
13487;SDS011;6816;48.506;9.050;2023-02-15T06:03:05;12.97;;;8.40;;
13487;SDS011;6816;48.506;9.050;2023-02-15T06:06:06;14.83;;;8.33;;
13487;SDS011;6816;48.506;9.050;2023-02-15T06:09:07;11.90;;;8.10;;
13487;SDS011;6816;48.506;9.050;2023-02-15T06:12:07;12.03;;;8.40;;
13487;SDS011;6816;48.506;9.050;2023-02-15T06:15:08;11.73;;;7.53;;
13487;SDS011;6816;48.506;9.050;2023-02-15T06:18:09;11.50;;;8.13;;
13487;SDS011;6816;48.506;9.050;2023-02-15T06:21:09;12.97;;;8.30;;
13487;SDS011;6816;48.506;9.050;2023-02-15T06:24:10;10.03;;;7.60;;
13487;SDS011;6816;48.506;9.050;2023-02-15T06:27:11;12.40;;;8.30;;
13487;SDS011;6816;48.506;9.050;2023-02-15T06:30:11;10.90;;;7.80;;
13487;SDS011;6816;48.506;9.050;2023-02-15T06:33:12;14.20;;;7.93;;
13487;SDS011;6816;48.506;9.050;2023-02-15T06:36:13;12.50;;;8.07;;
13487;SDS011;6816;48.506;9.050;2023-02-15T06:39:14;12.20;;;8.57;;
13487;SDS011;6816;48.506;9.050;2023-02-15T06:42:14;13.17;;;8.77;;
13487;SDS011;6816;48.506;9.050;2023-02-15T06:45:15;13.20;;;8.87;;
13487;SDS011;6816;48.506;9.050;2023-02-15T06:48:16;13.50;;;8.47;;
13487;SDS011;6816;48.506;9.050;2023-02-15T06:51:16;11.70;;;8.20;;
13487;SDS011;6816;48.506;9.050;2023-02-15T06:54:17;12.27;;;8.77;;
13487;SDS011;6816;48.506;9.050;2023-02-15T06:57:18;14.50;;;8.47;;
13487;SDS011;6816;48.506;9.050;2023-02-15T07:00:18;14.57;;;8.07;;
13487;SDS011;6816;48.506;9.050;2023-02-15T07:03:19;13.10;;;8.03;;
13487;SDS011;6816;48.506;9.050;2023-02-15T07:06:20;14.03;;;8.10;;
13487;SDS011;6816;48.506;9.050;2023-02-15T07:09:21;13.27;;;8.97;;
13487;SDS011;6816;48.506;9.050;2023-02-15T07:12:22;13.20;;;9.03;;
13487;SDS011;6816;48.506;9.050;2023-02-15T07:15:41;12.23;;;8.37;;
13487;SDS011;6816;48.506;9.050;2023-02-15T07:18:41;12.63;;;8.37;;
13487;SDS011;6816;48.506;9.050;2023-02-15T07:21:42;19.43;;;9.03;;
13487;SDS011;6816;48.506;9.050;2023-02-15T07:24:45;14.57;;;8.37;;
13487;SDS011;6816;48.506;9.050;2023-02-15T07:27:45;11.57;;;7.90;;
13487;SDS011;6816;48.506;9.050;2023-02-15T07:30:46;14.33;;;8.67;;
13487;SDS011;6816;48.506;9.050;2023-02-15T07:33:48;12.03;;;7.97;;
13487;SDS011;6816;48.506;9.050;2023-02-15T07:36:50;14.00;;;8.87;;
13487;SDS011;6816;48.506;9.050;2023-02-15T07:39:51;13.53;;;8.40;;
13487;SDS011;6816;48.506;9.050;2023-02-15T07:42:52;15.60;;;9.27;;
13487;SDS011;6816;48.506;9.050;2023-02-15T07:45:54;13.60;;;9.67;;
13487;SDS011;6816;48.506;9.050;2023-02-15T07:49:07;14.50;;;8.97;;
13487;SDS011;6816;48.506;9.050;2023-02-15T07:52:08;13.27;;;8.03;;
13487;SDS011;6816;48.506;9.050;2023-02-15T07:55:08;13.20;;;9.60;;
13487;SDS011;6816;48.506;9.050;2023-02-15T07:58:12;13.83;;;8.80;;
13487;SDS011;6816;48.506;9.050;2023-02-15T08:01:13;13.00;;;8.30;;
13487;SDS011;6816;48.506;9.050;2023-02-15T08:04:14;13.37;;;8.33;;
13487;SDS011;6816;48.506;9.050;2023-02-15T08:07:15;11.67;;;7.30;;
13487;SDS011;6816;48.506;9.050;2023-02-15T08:10:15;11.77;;;8.00;;
13487;SDS011;6816;48.506;9.050;2023-02-15T08:13:36;11.40;;;8.10;;
13487;SDS011;6816;48.506;9.050;2023-02-15T08:16:54;13.07;;;8.17;;
13487;SDS011;6816;48.506;9.050;2023-02-15T08:19:56;10.47;;;8.27;;
13487;SDS011;6816;48.506;9.050;2023-02-15T08:22:56;13.63;;;8.60;;
13487;SDS011;6816;48.506;9.050;2023-02-15T08:25:59;12.97;;;8.03;;
13487;SDS011;6816;48.506;9.050;2023-02-15T08:29:00;12.60;;;8.43;;
13487;SDS011;6816;48.506;9.050;2023-02-15T08:32:03;10.97;;;7.80;;
13487;SDS011;6816;48.506;9.050;2023-02-15T08:35:05;11.30;;;7.67;;
13487;SDS011;6816;48.506;9.050;2023-02-15T08:38:06;11.73;;;8.47;;
13487;SDS011;6816;48.506;9.050;2023-02-15T08:41:10;12.50;;;8.73;;
13487;SDS011;6816;48.506;9.050;2023-02-15T08:44:14;11.13;;;8.10;;
13487;SDS011;6816;48.506;9.050;2023-02-15T08:47:16;9.33;;;7.60;;
13487;SDS011;6816;48.506;9.050;2023-02-15T08:50:16;11.27;;;7.63;;
13487;SDS011;6816;48.506;9.050;2023-02-15T08:53:17;12.87;;;7.30;;
13487;SDS011;6816;48.506;9.050;2023-02-15T08:56:25;10.37;;;8.30;;
13487;SDS011;6816;48.506;9.050;2023-02-15T08:59:27;10.87;;;7.73;;
13487;SDS011;6816;48.506;9.050;2023-02-15T09:02:28;11.43;;;8.00;;
13487;SDS011;6816;48.506;9.050;2023-02-15T09:05:29;11.20;;;8.27;;
13487;SDS011;6816;48.506;9.050;2023-02-15T09:08:29;10.10;;;7.60;;
13487;SDS011;6816;48.506;9.050;2023-02-15T09:11:32;10.47;;;8.00;;
13487;SDS011;6816;48.506;9.050;2023-02-15T09:14:34;13.83;;;8.47;;
13487;SDS011;6816;48.506;9.050;2023-02-15T09:17:35;12.03;;;8.53;;
13487;SDS011;6816;48.506;9.050;2023-02-15T09:20:35;14.10;;;9.03;;
13487;SDS011;6816;48.506;9.050;2023-02-15T09:23:36;11.00;;;8.47;;
13487;SDS011;6816;48.506;9.050;2023-02-15T09:26:38;12.40;;;8.20;;
13487;SDS011;6816;48.506;9.050;2023-02-15T09:29:41;13.27;;;8.87;;
13487;SDS011;6816;48.506;9.050;2023-02-15T09:32:41;12.80;;;8.67;;
13487;SDS011;6816;48.506;9.050;2023-02-15T09:35:42;10.67;;;7.97;;
13487;SDS011;6816;48.506;9.050;2023-02-15T09:38:43;12.80;;;8.00;;
13487;SDS011;6816;48.506;9.050;2023-02-15T09:41:52;12.23;;;8.50;;
13487;SDS011;6816;48.506;9.050;2023-02-15T09:48:43;11.30;;;7.37;;
13487;SDS011;6816;48.506;9.050;2023-02-15T10:21:35;10.37;;;7.40;;
13487;SDS011;6816;48.506;9.050;2023-02-15T10:25:06;9.53;;;7.27;;
13487;SDS011;6816;48.506;9.050;2023-02-15T10:28:15;10.30;;;7.53;;
13487;SDS011;6816;48.506;9.050;2023-02-15T10:38:17;7.83;;;5.90;;
13487;SDS011;6816;48.506;9.050;2023-02-15T10:48:02;7.40;;;5.77;;
13487;SDS011;6816;48.506;9.050;2023-02-15T10:51:32;9.33;;;5.97;;
13487;SDS011;6816;48.506;9.050;2023-02-15T10:57:45;7.73;;;6.03;;
13487;SDS011;6816;48.506;9.050;2023-02-15T11:07:37;8.87;;;5.43;;
13487;SDS011;6816;48.506;9.050;2023-02-15T11:10:51;5.03;;;4.20;;
13487;SDS011;6816;48.506;9.050;2023-02-15T11:14:00;5.77;;;4.70;;
13487;SDS011;6816;48.506;9.050;2023-02-15T11:17:08;4.87;;;4.20;;
13487;SDS011;6816;48.506;9.050;2023-02-15T11:20:16;7.17;;;4.60;;
13487;SDS011;6816;48.506;9.050;2023-02-15T11:23:28;6.63;;;4.80;;
13487;SDS011;6816;48.506;9.050;2023-02-15T11:30:02;4.87;;;4.40;;
13487;SDS011;6816;48.506;9.050;2023-02-15T11:33:14;9.13;;;4.67;;
13487;SDS011;6816;48.506;9.050;2023-02-15T11:36:26;5.87;;;4.73;;
13487;SDS011;6816;48.506;9.050;2023-02-15T11:39:32;5.93;;;5.00;;
13487;SDS011;6816;48.506;9.050;2023-02-15T11:42:34;6.87;;;5.40;;
13487;SDS011;6816;48.506;9.050;2023-02-15T11:45:35;6.17;;;5.57;;
13487;SDS011;6816;48.506;9.050;2023-02-15T11:48:36;6.77;;;5.63;;
13487;SDS011;6816;48.506;9.050;2023-02-15T11:51:37;7.83;;;5.43;;
13487;SDS011;6816;48.506;9.050;2023-02-15T11:54:39;7.23;;;5.37;;
13487;SDS011;6816;48.506;9.050;2023-02-15T11:57:44;7.33;;;5.60;;
13487;SDS011;6816;48.506;9.050;2023-02-15T12:01:02;5.97;;;5.37;;
13487;SDS011;6816;48.506;9.050;2023-02-15T12:04:38;6.30;;;5.50;;
13487;SDS011;6816;48.506;9.050;2023-02-15T12:07:49;6.77;;;5.67;;
13487;SDS011;6816;48.506;9.050;2023-02-15T12:10:57;6.67;;;5.67;;
13487;SDS011;6816;48.506;9.050;2023-02-15T12:14:13;9.70;;;6.27;;
13487;SDS011;6816;48.506;9.050;2023-02-15T12:17:17;8.27;;;5.90;;
13487;SDS011;6816;48.506;9.050;2023-02-15T12:23:33;7.13;;;6.43;;
13487;SDS011;6816;48.506;9.050;2023-02-15T12:26:39;7.03;;;6.30;;
13487;SDS011;6816;48.506;9.050;2023-02-15T12:29:41;6.75;;;6.05;;
13487;SDS011;6816;48.506;9.050;2023-02-15T12:36:30;8.00;;;6.13;;
13487;SDS011;6816;48.506;9.050;2023-02-15T12:39:50;6.78;;;5.43;;
13487;SDS011;6816;48.506;9.050;2023-02-15T12:42:53;6.75;;;5.38;;
13487;SDS011;6816;48.506;9.050;2023-02-15T12:45:55;5.78;;;5.18;;
13487;SDS011;6816;48.506;9.050;2023-02-15T12:49:19;8.10;;;5.47;;
13487;SDS011;6816;48.506;9.050;2023-02-15T12:55:24;9.00;;;5.32;;
13487;SDS011;6816;48.506;9.050;2023-02-15T12:58:33;6.50;;;4.95;;
13487;SDS011;6816;48.506;9.050;2023-02-15T13:01:41;10.07;;;4.65;;
13487;SDS011;6816;48.506;9.050;2023-02-15T13:04:47;7.65;;;4.68;;
13487;SDS011;6816;48.506;9.050;2023-02-15T13:07:50;4.75;;;4.30;;
13487;SDS011;6816;48.506;9.050;2023-02-15T13:14:16;6.95;;;4.72;;
13487;SDS011;6816;48.506;9.050;2023-02-15T13:17:24;4.65;;;4.25;;
13487;SDS011;6816;48.506;9.050;2023-02-15T13:20:31;5.18;;;4.18;;
13487;SDS011;6816;48.506;9.050;2023-02-15T13:23:34;4.45;;;3.75;;
13487;SDS011;6816;48.506;9.050;2023-02-15T13:26:35;4.22;;;3.67;;
13487;SDS011;6816;48.506;9.050;2023-02-15T13:29:36;6.85;;;3.40;;
13487;SDS011;6816;48.506;9.050;2023-02-15T13:32:38;6.22;;;3.38;;
13487;SDS011;6816;48.506;9.050;2023-02-15T13:35:42;4.88;;;3.47;;
13487;SDS011;6816;48.506;9.050;2023-02-15T13:39:09;7.50;;;3.00;;
13487;SDS011;6816;48.506;9.050;2023-02-15T13:45:39;5.57;;;2.72;;
13487;SDS011;6816;48.506;9.050;2023-02-15T13:52:30;5.30;;;3.20;;
13487;SDS011;6816;48.506;9.050;2023-02-15T13:55:50;6.25;;;3.25;;
13487;SDS011;6816;48.506;9.050;2023-02-15T14:01:56;4.93;;;3.35;;
13487;SDS011;6816;48.506;9.050;2023-02-15T14:05:21;5.32;;;3.75;;
13487;SDS011;6816;48.506;9.050;2023-02-15T14:09:00;4.77;;;4.10;;
13487;SDS011;6816;48.506;9.050;2023-02-15T14:16:23;6.33;;;5.20;;
13487;SDS011;6816;48.506;9.050;2023-02-15T14:23:17;6.07;;;5.47;;
13487;SDS011;6816;48.506;9.050;2023-02-15T14:26:49;6.67;;;5.23;;
13487;SDS011;6816;48.506;9.050;2023-02-15T14:30:00;7.67;;;6.13;;
13487;SDS011;6816;48.506;9.050;2023-02-15T14:33:10;6.40;;;5.70;;
13487;SDS011;6816;48.506;9.050;2023-02-15T14:36:20;7.17;;;5.67;;
13487;SDS011;6816;48.506;9.050;2023-02-15T14:42:53;5.30;;;4.80;;
13487;SDS011;6816;48.506;9.050;2023-02-15T14:49:13;5.83;;;4.73;;
13487;SDS011;6816;48.506;9.050;2023-02-15T14:52:15;7.07;;;5.03;;
13487;SDS011;6816;48.506;9.050;2023-02-15T14:55:15;9.07;;;6.33;;
13487;SDS011;6816;48.506;9.050;2023-02-15T14:58:58;7.90;;;6.93;;
13487;SDS011;6816;48.506;9.050;2023-02-15T15:05:26;8.57;;;5.57;;
13487;SDS011;6816;48.506;9.050;2023-02-15T15:08:36;7.57;;;4.80;;
13487;SDS011;6816;48.506;9.050;2023-02-15T15:11:47;9.97;;;5.13;;
13487;SDS011;6816;48.506;9.050;2023-02-15T15:14:49;6.93;;;5.20;;
13487;SDS011;6816;48.506;9.050;2023-02-15T15:18:02;7.10;;;4.70;;
13487;SDS011;6816;48.506;9.050;2023-02-15T15:21:03;4.40;;;4.00;;
13487;SDS011;6816;48.506;9.050;2023-02-15T15:24:05;6.20;;;4.00;;
13487;SDS011;6816;48.506;9.050;2023-02-15T15:37:23;9.37;;;4.77;;
13487;SDS011;6816;48.506;9.050;2023-02-15T15:47:47;10.20;;;4.57;;
13487;SDS011;6816;48.506;9.050;2023-02-15T15:50:59;9.37;;;4.93;;
13487;SDS011;6816;48.506;9.050;2023-02-15T15:54:02;6.57;;;5.53;;
13487;SDS011;6816;48.506;9.050;2023-02-15T15:57:03;6.83;;;5.53;;
13487;SDS011;6816;48.506;9.050;2023-02-15T16:00:22;10.57;;;5.57;;
13487;SDS011;6816;48.506;9.050;2023-02-15T16:03:33;9.13;;;5.90;;
13487;SDS011;6816;48.506;9.050;2023-02-15T16:06:35;9.20;;;5.30;;
13487;SDS011;6816;48.506;9.050;2023-02-15T16:09:37;12.30;;;6.10;;
13487;SDS011;6816;48.506;9.050;2023-02-15T16:12:38;7.77;;;5.97;;
13487;SDS011;6816;48.506;9.050;2023-02-15T16:15:43;8.83;;;5.90;;
13487;SDS011;6816;48.506;9.050;2023-02-15T16:18:49;12.03;;;5.63;;
13487;SDS011;6816;48.506;9.050;2023-02-15T16:21:51;10.17;;;5.33;;
13487;SDS011;6816;48.506;9.050;2023-02-15T16:24:58;7.20;;;5.83;;
13487;SDS011;6816;48.506;9.050;2023-02-15T16:28:07;11.87;;;6.10;;
13487;SDS011;6816;48.506;9.050;2023-02-15T16:31:12;11.17;;;5.80;;
13487;SDS011;6816;48.506;9.050;2023-02-15T16:34:18;14.43;;;6.23;;
13487;SDS011;6816;48.506;9.050;2023-02-15T16:37:20;9.50;;;5.67;;
13487;SDS011;6816;48.506;9.050;2023-02-15T16:43:24;12.47;;;7.27;;
13487;SDS011;6816;48.506;9.050;2023-02-15T16:49:33;13.37;;;6.87;;
13487;SDS011;6816;48.506;9.050;2023-02-15T16:52:34;9.17;;;6.50;;
13487;SDS011;6816;48.506;9.050;2023-02-15T16:55:37;12.60;;;6.37;;
13487;SDS011;6816;48.506;9.050;2023-02-15T16:58:43;7.00;;;5.13;;
13487;SDS011;6816;48.506;9.050;2023-02-15T17:01:45;8.17;;;5.30;;
13487;SDS011;6816;48.506;9.050;2023-02-15T17:04:59;7.83;;;4.73;;
13487;SDS011;6816;48.506;9.050;2023-02-15T17:11:37;7.97;;;4.60;;
13487;SDS011;6816;48.506;9.050;2023-02-15T17:14:40;6.00;;;4.63;;
13487;SDS011;6816;48.506;9.050;2023-02-15T17:17:41;8.13;;;4.90;;
13487;SDS011;6816;48.506;9.050;2023-02-15T17:20:42;10.37;;;4.97;;
13487;SDS011;6816;48.506;9.050;2023-02-15T17:23:45;9.50;;;5.60;;
13487;SDS011;6816;48.506;9.050;2023-02-15T17:26:49;7.70;;;5.60;;
13487;SDS011;6816;48.506;9.050;2023-02-15T17:30:05;9.17;;;5.80;;
13487;SDS011;6816;48.506;9.050;2023-02-15T17:36:23;6.90;;;4.77;;
13487;SDS011;6816;48.506;9.050;2023-02-15T17:39:28;7.33;;;4.00;;
13487;SDS011;6816;48.506;9.050;2023-02-15T17:42:28;6.33;;;4.33;;
13487;SDS011;6816;48.506;9.050;2023-02-15T17:45:33;6.33;;;4.57;;
13487;SDS011;6816;48.506;9.050;2023-02-15T17:48:37;6.53;;;4.17;;
13487;SDS011;6816;48.506;9.050;2023-02-15T17:51:41;5.50;;;4.30;;
13487;SDS011;6816;48.506;9.050;2023-02-15T17:54:41;7.57;;;5.03;;
13487;SDS011;6816;48.506;9.050;2023-02-15T17:58:02;10.13;;;6.87;;
13487;SDS011;6816;48.506;9.050;2023-02-15T18:01:13;6.73;;;4.80;;
13487;SDS011;6816;48.506;9.050;2023-02-15T18:04:36;9.97;;;6.80;;
13487;SDS011;6816;48.506;9.050;2023-02-15T18:07:55;12.37;;;6.33;;
13487;SDS011;6816;48.506;9.050;2023-02-15T18:11:14;7.13;;;5.10;;
13487;SDS011;6816;48.506;9.050;2023-02-15T18:14:34;7.33;;;4.80;;
13487;SDS011;6816;48.506;9.050;2023-02-15T18:17:36;6.63;;;5.13;;
13487;SDS011;6816;48.506;9.050;2023-02-15T18:20:39;10.90;;;4.80;;
13487;SDS011;6816;48.506;9.050;2023-02-15T18:23:40;6.03;;;4.03;;
13487;SDS011;6816;48.506;9.050;2023-02-15T18:26:41;6.10;;;4.70;;
13487;SDS011;6816;48.506;9.050;2023-02-15T18:29:42;7.73;;;4.33;;
13487;SDS011;6816;48.506;9.050;2023-02-15T18:32:43;6.47;;;3.83;;
13487;SDS011;6816;48.506;9.050;2023-02-15T18:35:45;7.57;;;4.10;;
13487;SDS011;6816;48.506;9.050;2023-02-15T18:38:49;5.83;;;3.90;;
13487;SDS011;6816;48.506;9.050;2023-02-15T18:41:49;8.77;;;5.77;;
13487;SDS011;6816;48.506;9.050;2023-02-15T18:44:52;10.90;;;6.97;;
13487;SDS011;6816;48.506;9.050;2023-02-15T18:47:57;11.00;;;6.80;;
13487;SDS011;6816;48.506;9.050;2023-02-15T18:50:58;9.70;;;6.23;;
13487;SDS011;6816;48.506;9.050;2023-02-15T18:53:59;8.77;;;6.23;;
13487;SDS011;6816;48.506;9.050;2023-02-15T18:57:03;9.50;;;6.93;;
13487;SDS011;6816;48.506;9.050;2023-02-15T19:00:06;10.00;;;5.37;;
13487;SDS011;6816;48.506;9.050;2023-02-15T19:03:13;9.87;;;5.27;;
13487;SDS011;6816;48.506;9.050;2023-02-15T19:06:17;9.80;;;5.10;;
13487;SDS011;6816;48.506;9.050;2023-02-15T19:09:21;8.37;;;5.40;;
13487;SDS011;6816;48.506;9.050;2023-02-15T19:12:23;10.87;;;7.03;;
13487;SDS011;6816;48.506;9.050;2023-02-15T19:15:25;12.53;;;7.87;;
13487;SDS011;6816;48.506;9.050;2023-02-15T19:18:29;15.07;;;8.63;;
13487;SDS011;6816;48.506;9.050;2023-02-15T19:21:30;12.70;;;7.20;;
13487;SDS011;6816;48.506;9.050;2023-02-15T19:24:36;9.60;;;6.93;;
13487;SDS011;6816;48.506;9.050;2023-02-15T19:27:39;12.53;;;7.10;;
13487;SDS011;6816;48.506;9.050;2023-02-15T19:30:40;11.77;;;6.67;;
13487;SDS011;6816;48.506;9.050;2023-02-15T19:33:40;9.97;;;6.50;;
13487;SDS011;6816;48.506;9.050;2023-02-15T19:36:42;10.50;;;5.73;;
13487;SDS011;6816;48.506;9.050;2023-02-15T19:39:44;8.33;;;5.00;;
13487;SDS011;6816;48.506;9.050;2023-02-15T19:42:45;6.10;;;4.93;;
13487;SDS011;6816;48.506;9.050;2023-02-15T19:45:46;8.40;;;5.43;;
13487;SDS011;6816;48.506;9.050;2023-02-15T19:48:47;10.87;;;5.83;;
13487;SDS011;6816;48.506;9.050;2023-02-15T19:51:52;11.50;;;7.13;;
13487;SDS011;6816;48.506;9.050;2023-02-15T19:54:53;8.40;;;6.30;;
13487;SDS011;6816;48.506;9.050;2023-02-15T19:57:54;11.17;;;7.63;;
13487;SDS011;6816;48.506;9.050;2023-02-15T20:00:56;12.13;;;7.40;;
13487;SDS011;6816;48.506;9.050;2023-02-15T20:03:56;14.60;;;7.33;;
13487;SDS011;6816;48.506;9.050;2023-02-15T20:06:59;10.20;;;7.57;;
13487;SDS011;6816;48.506;9.050;2023-02-15T20:10:01;10.47;;;7.53;;
13487;SDS011;6816;48.506;9.050;2023-02-15T20:13:02;12.90;;;7.50;;
13487;SDS011;6816;48.506;9.050;2023-02-15T20:16:03;9.37;;;6.63;;
13487;SDS011;6816;48.506;9.050;2023-02-15T20:19:07;10.83;;;5.83;;
13487;SDS011;6816;48.506;9.050;2023-02-15T20:22:26;8.90;;;5.07;;
13487;SDS011;6816;48.506;9.050;2023-02-15T20:25:28;9.20;;;5.20;;
13487;SDS011;6816;48.506;9.050;2023-02-15T20:28:33;9.17;;;4.77;;
13487;SDS011;6816;48.506;9.050;2023-02-15T20:31:34;7.93;;;5.50;;
13487;SDS011;6816;48.506;9.050;2023-02-15T20:34:34;9.87;;;5.97;;
13487;SDS011;6816;48.506;9.050;2023-02-15T20:37:35;10.63;;;6.27;;
13487;SDS011;6816;48.506;9.050;2023-02-15T20:40:35;8.77;;;5.63;;
13487;SDS011;6816;48.506;9.050;2023-02-15T20:43:56;12.03;;;6.37;;
13487;SDS011;6816;48.506;9.050;2023-02-15T20:46:57;15.80;;;6.67;;
13487;SDS011;6816;48.506;9.050;2023-02-15T20:49:59;10.67;;;5.67;;
13487;SDS011;6816;48.506;9.050;2023-02-15T20:53:00;8.53;;;5.97;;
13487;SDS011;6816;48.506;9.050;2023-02-15T20:56:01;9.00;;;6.57;;
13487;SDS011;6816;48.506;9.050;2023-02-15T20:59:05;14.53;;;8.60;;
13487;SDS011;6816;48.506;9.050;2023-02-15T21:02:32;14.30;;;8.27;;
13487;SDS011;6816;48.506;9.050;2023-02-15T21:05:35;13.50;;;7.80;;
13487;SDS011;6816;48.506;9.050;2023-02-15T21:08:35;12.07;;;7.27;;
13487;SDS011;6816;48.506;9.050;2023-02-15T21:11:36;12.60;;;7.17;;
13487;SDS011;6816;48.506;9.050;2023-02-15T21:14:37;12.03;;;7.47;;